createdAt,value
2023-02-16T00:00:27.595Z,4.78
2023-02-16T00:02:54.324Z,7.88
2023-02-16T00:05:28.334Z,5.45
2023-02-16T00:07:56.606Z,6.70
2023-02-16T00:10:24.238Z,5.53
2023-02-16T00:13:09.501Z,5.78
2023-02-16T00:15:36.252Z,5.07
2023-02-16T00:18:06.064Z,4.30
2023-02-16T00:20:32.712Z,5.57
2023-02-16T00:22:59.429Z,9.43
2023-02-16T00:25:26.113Z,8.25
2023-02-16T00:27:53.313Z,7.07
2023-02-16T00:30:22.099Z,7.65
2023-02-16T00:32:48.892Z,5.93
2023-02-16T00:35:17.742Z,4.35
2023-02-16T00:37:44.869Z,6.18
2023-02-16T00:40:12.848Z,4.50
2023-02-16T00:42:39.804Z,4.20
2023-02-16T00:45:15.153Z,4.05
2023-02-16T00:47:44.848Z,4.13
2023-02-16T00:50:17.164Z,5.70
2023-02-16T00:52:46.478Z,4.90
2023-02-16T00:55:18.455Z,7.28
2023-02-16T00:58:06.559Z,4.82
2023-02-16T01:01:06.605Z,5.60
2023-02-16T01:03:33.889Z,6.10
2023-02-16T01:06:19.120Z,4.53
2023-02-16T01:09:15.366Z,5.70
2023-02-16T01:11:42.100Z,4.22
2023-02-16T01:14:12.516Z,5.05
2023-02-16T01:16:42.072Z,6.28
2023-02-16T01:19:11.778Z,5.00
2023-02-16T01:21:38.449Z,3.60
2023-02-16T01:24:05.391Z,6.72
2023-02-16T01:26:37.536Z,3.78
2023-02-16T01:29:04.202Z,5.25
2023-02-16T01:31:31.059Z,3.55
2023-02-16T01:33:57.797Z,2.05
2023-02-16T01:36:31.598Z,4.22
2023-02-16T01:38:58.280Z,5.03
2023-02-16T01:42:07.216Z,4.88
2023-02-16T01:44:41.508Z,4.47
2023-02-16T01:47:16.157Z,6.28
2023-02-16T01:49:42.799Z,4.75
2023-02-16T01:52:27.759Z,3.15
2023-02-16T01:55:02.880Z,3.90
2023-02-16T01:57:29.510Z,4.78
2023-02-16T01:59:56.185Z,5.32
2023-02-16T02:02:26.232Z,4.45
2023-02-16T02:05:24.995Z,4.32
2023-02-16T02:08:12.274Z,6.50
2023-02-16T02:11:18.593Z,6.28
2023-02-16T02:13:57.837Z,3.35
2023-02-16T02:16:27.804Z,6.03
2023-02-16T02:18:55.100Z,4.38
2023-02-16T02:22:03.530Z,5.18
2023-02-16T02:24:42.504Z,3.63
2023-02-16T02:27:25.616Z,2.90
2023-02-16T02:30:00.281Z,4.72
2023-02-16T02:32:42.458Z,4.55
2023-02-16T02:35:24.278Z,3.92
2023-02-16T02:37:50.932Z,5.60
2023-02-16T02:40:29.433Z,3.90
2023-02-16T02:43:10.118Z,5.10
2023-02-16T02:46:01.361Z,6.13
2023-02-16T02:48:32.008Z,3.47
2023-02-16T02:51:21.704Z,2.85
2023-02-16T02:54:31.439Z,1.90
2023-02-16T02:57:21.560Z,4.72
2023-02-16T03:00:23.796Z,2.55
2023-02-16T03:02:54.250Z,3.45
2023-02-16T03:05:24.689Z,1.88
2023-02-16T03:07:57.504Z,3.30
2023-02-16T03:11:01.168Z,2.53
2023-02-16T03:13:34.926Z,1.85
2023-02-16T03:16:07.547Z,2.58
2023-02-16T03:18:55.160Z,2.53
2023-02-16T03:21:40.593Z,2.00
2023-02-16T03:24:32.193Z,1.88
2023-02-16T03:27:17.698Z,2.92
2023-02-16T03:29:48.122Z,2.38
2023-02-16T03:32:15.612Z,2.33
2023-02-16T03:34:42.610Z,3.63
2023-02-16T03:37:09.940Z,6.10
2023-02-16T03:39:56.894Z,3.15
2023-02-16T03:42:24.532Z,2.38
2023-02-16T03:44:52.563Z,1.92
2023-02-16T03:47:19.487Z,2.15
2023-02-16T03:49:46.183Z,1.10
2023-02-16T03:52:12.939Z,2.25
2023-02-16T03:54:39.579Z,2.10
2023-02-16T03:57:06.293Z,3.20
2023-02-16T03:59:33.040Z,2.30
2023-02-16T04:02:00.022Z,3.65
2023-02-16T04:04:26.980Z,2.20
2023-02-16T04:06:53.660Z,3.63
2023-02-16T04:09:20.296Z,4.43
2023-02-16T04:12:05.384Z,4.85
2023-02-16T04:14:32.105Z,3.63
2023-02-16T04:16:58.830Z,2.05
2023-02-16T04:19:25.553Z,2.10
2023-02-16T04:21:54.964Z,2.80
2023-02-16T04:24:21.790Z,3.50
2023-02-16T04:26:49.615Z,3.47
2023-02-16T04:29:16.556Z,3.88
2023-02-16T04:31:43.373Z,3.20
2023-02-16T04:34:10.140Z,1.75
2023-02-16T04:36:36.835Z,3.17
2023-02-16T04:39:04.056Z,2.67
2023-02-16T04:41:30.775Z,3.53
2023-02-16T04:43:57.513Z,3.00
2023-02-16T04:46:24.435Z,2.72
2023-02-16T04:48:51.169Z,2.85
2023-02-16T04:51:17.930Z,4.50
2023-02-16T04:53:44.670Z,2.72
2023-02-16T04:56:12.704Z,2.80
2023-02-16T04:58:39.477Z,2.88
2023-02-16T05:01:06.677Z,4.38
2023-02-16T05:03:33.833Z,2.42
2023-02-16T05:06:00.643Z,2.58
2023-02-16T05:08:27.371Z,3.65
2023-02-16T05:11:12.487Z,4.28
2023-02-16T05:13:57.900Z,5.07
2023-02-16T05:16:25.230Z,3.38
2023-02-16T05:18:51.876Z,4.43
2023-02-16T05:21:33.874Z,3.50
2023-02-16T05:24:19.144Z,2.42
2023-02-16T05:26:45.865Z,4.93
2023-02-16T05:29:12.614Z,3.50
2023-02-16T05:31:39.422Z,2.17
2023-02-16T05:34:06.208Z,4.93
2023-02-16T05:36:32.869Z,4.05
2023-02-16T05:38:59.742Z,2.47
2023-02-16T05:41:26.472Z,3.97
2023-02-16T05:43:55.409Z,3.33
2023-02-16T05:46:23.652Z,2.95
2023-02-16T05:48:51.208Z,3.53
2023-02-16T05:51:18.413Z,4.95
2023-02-16T05:53:45.759Z,4.28
2023-02-16T05:56:12.658Z,3.42
2023-02-16T05:58:39.562Z,4.93
2023-02-16T06:01:06.457Z,2.78
2023-02-16T06:03:33.654Z,2.25
2023-02-16T06:06:02.014Z,4.75
2023-02-16T06:08:30.706Z,2.55
2023-02-16T06:10:57.813Z,4.35
2023-02-16T06:13:25.540Z,4.15
2023-02-16T06:15:55.139Z,4.88
2023-02-16T06:18:22.924Z,3.20
2023-02-16T06:20:49.620Z,3.90
2023-02-16T06:23:17.205Z,4.20
2023-02-16T06:25:45.914Z,5.05
2023-02-16T06:28:12.589Z,2.78
2023-02-16T06:30:39.360Z,4.55
2023-02-16T06:33:06.040Z,3.70
2023-02-16T06:35:32.758Z,4.40
2023-02-16T06:37:59.534Z,4.93
2023-02-16T06:40:26.812Z,5.57
2023-02-16T06:42:53.546Z,6.15
2023-02-16T06:45:20.210Z,5.28
2023-02-16T06:47:46.909Z,5.28
2023-02-16T06:50:14.657Z,5.88
2023-02-16T06:52:41.439Z,5.68
2023-02-16T06:55:08.610Z,4.47
2023-02-16T06:57:35.340Z,4.45
2023-02-16T07:00:02.321Z,4.75
2023-02-16T07:02:29.009Z,5.13
2023-02-16T07:04:55.735Z,3.53
2023-02-16T07:07:22.411Z,4.22
2023-02-16T07:09:49.089Z,4.60
2023-02-16T07:12:15.915Z,4.95
2023-02-16T07:14:44.151Z,4.50
2023-02-16T07:17:11.106Z,7.03
2023-02-16T07:19:37.866Z,5.28
2023-02-16T07:22:05.480Z,5.47
2023-02-16T07:24:32.295Z,4.53
2023-02-16T07:26:59.076Z,3.00
2023-02-16T07:29:25.747Z,3.80
2023-02-16T07:31:53.675Z,4.43
2023-02-16T07:34:21.974Z,5.75
2023-02-16T07:36:48.910Z,4.68
2023-02-16T07:39:15.656Z,5.07
2023-02-16T07:41:42.417Z,5.30
2023-02-16T07:44:09.196Z,4.90
2023-02-16T07:46:35.963Z,5.90
2023-02-16T07:49:03.070Z,4.72
2023-02-16T07:51:31.274Z,3.75
2023-02-16T07:53:59.987Z,2.72
2023-02-16T07:56:31.880Z,5.18
2023-02-16T07:59:00.040Z,6.68
2023-02-16T08:01:27.259Z,2.92
2023-02-16T08:03:54.160Z,3.55
2023-02-16T08:06:20.960Z,4.28
2023-02-16T08:08:47.778Z,3.83
2023-02-16T08:11:17.452Z,5.65
2023-02-16T08:13:44.392Z,5.47
2023-02-16T08:16:14.280Z,4.85
2023-02-16T08:18:42.011Z,4.75
2023-02-16T08:21:18.212Z,3.47
2023-02-16T08:23:47.921Z,4.30
2023-02-16T08:26:18.554Z,9.68
2023-02-16T08:28:47.214Z,5.82
2023-02-16T08:31:17.049Z,7.40
2023-02-16T08:33:44.110Z,6.00
2023-02-16T08:36:25.095Z,6.32
2023-02-16T08:38:53.286Z,4.55
2023-02-16T08:41:22.014Z,8.15
2023-02-16T08:43:49.976Z,10.57
2023-02-16T08:46:17.958Z,7.00
2023-02-16T08:48:45.458Z,5.68
2023-02-16T08:51:17.775Z,5.65
2023-02-16T08:53:47.731Z,5.53
2023-02-16T08:56:16.910Z,5.05
2023-02-16T08:58:43.936Z,8.20
2023-02-16T09:01:11.869Z,5.03
2023-02-16T09:03:43.623Z,5.72
2023-02-16T09:06:12.385Z,6.18
2023-02-16T09:08:39.319Z,3.83
2023-02-16T09:11:16.472Z,6.10
2023-02-16T09:13:43.470Z,6.72
2023-02-16T09:16:13.694Z,5.85
2023-02-16T09:18:41.006Z,7.15
2023-02-16T09:21:11.848Z,9.38
2023-02-16T09:23:40.545Z,4.30
2023-02-16T09:26:09.848Z,7.70
2023-02-16T09:28:40.637Z,9.77
2023-02-16T09:31:12.900Z,5.93
2023-02-16T09:33:41.764Z,9.93
2023-02-16T09:36:11.460Z,8.23
2023-02-16T09:38:42.898Z,9.35
2023-02-16T09:41:18.424Z,6.80
2023-02-16T09:43:55.977Z,6.80
2023-02-16T09:46:25.313Z,9.98
2023-02-16T09:48:53.203Z,6.60
2023-02-16T09:51:34.931Z,6.80
2023-02-16T09:54:34.833Z,8.63
2023-02-16T09:57:14.236Z,5.75
2023-02-16T10:00:10.286Z,8.05
2023-02-16T10:02:46.745Z,8.07
2023-02-16T10:05:25.751Z,6.88
2023-02-16T10:08:14.594Z,6.70
2023-02-16T10:11:07.654Z,8.10
2023-02-16T10:13:53.510Z,6.95
2023-02-16T10:16:27.319Z,7.75
2023-02-16T10:18:56.167Z,4.93
2023-02-16T10:21:27.650Z,7.72
2023-02-16T10:24:05.871Z,6.75
2023-02-16T10:26:38.611Z,8.57
2023-02-16T10:29:14.378Z,3.10
2023-02-16T10:31:44.418Z,5.78
2023-02-16T10:34:23.506Z,7.80
2023-02-16T10:37:09.643Z,5.68
2023-02-16T10:39:48.471Z,5.22
2023-02-16T10:42:18.064Z,3.95
2023-02-16T10:44:51.379Z,5.03
2023-02-16T10:47:39.945Z,8.13
2023-02-16T10:50:37.952Z,6.38
2023-02-16T10:53:13.399Z,6.50
2023-02-16T10:55:40.305Z,7.75
2023-02-16T10:58:17.337Z,8.40
2023-02-16T11:01:15.795Z,9.18
2023-02-16T11:03:48.921Z,8.68
2023-02-16T11:06:19.279Z,6.90
2023-02-16T11:08:52.010Z,10.80
2023-02-16T11:11:20.076Z,7.85
2023-02-16T11:13:57.453Z,9.45
2023-02-16T11:16:24.723Z,11.88
2023-02-16T11:19:08.989Z,8.95
2023-02-16T11:21:43.152Z,9.48
2023-02-16T11:24:13.524Z,9.98
2023-02-16T11:26:40.381Z,7.20
2023-02-16T11:29:20.393Z,7.85
2023-02-16T11:31:47.221Z,9.38
2023-02-16T11:34:26.598Z,9.48
2023-02-16T11:37:03.381Z,9.32
2023-02-16T11:39:36.429Z,12.95
2023-02-16T11:42:08.419Z,6.97
2023-02-16T11:44:48.954Z,10.10
2023-02-16T11:47:30.297Z,11.48
2023-02-16T11:50:33.642Z,10.38
2023-02-16T11:53:23.757Z,10.27
2023-02-16T11:55:51.336Z,11.02
2023-02-16T11:58:28.009Z,9.63
2023-02-16T12:01:34.915Z,10.50
2023-02-16T12:04:18.359Z,13.93
2023-02-16T12:09:36.905Z,7.00
2023-02-16T12:12:14.930Z,8.68
2023-02-16T12:14:58.899Z,10.98
2023-02-16T12:17:43.194Z,12.35
2023-02-16T12:20:34.206Z,10.38
2023-02-16T12:23:06.940Z,9.57
2023-02-16T12:25:42.194Z,8.82
2023-02-16T12:28:20.415Z,10.57
2023-02-16T12:31:02.488Z,6.97
2023-02-16T12:33:48.110Z,12.50
2023-02-16T12:36:45.334Z,7.45
2023-02-16T12:39:29.887Z,8.30
2023-02-16T12:42:21.084Z,5.75
2023-02-16T12:44:51.830Z,5.47
2023-02-16T12:47:32.422Z,9.63
2023-02-16T12:50:03.618Z,7.25
2023-02-16T12:52:42.752Z,7.45
2023-02-16T12:55:26.729Z,5.50
2023-02-16T12:58:25.993Z,5.20
2023-02-16T13:01:07.657Z,7.53
2023-02-16T13:03:55.517Z,4.78
2023-02-16T13:06:37.651Z,6.68
2023-02-16T13:09:25.138Z,9.48
2023-02-16T13:12:21.465Z,7.80
2023-02-16T13:14:58.717Z,6.13
2023-02-16T13:17:33.358Z,5.72
2023-02-16T13:20:00.469Z,6.63
2023-02-16T13:22:46.113Z,4.93
2023-02-16T13:25:33.508Z,4.45
2023-02-16T13:28:39.912Z,5.05
2023-02-16T13:31:24.191Z,4.80
2023-02-16T13:34:04.192Z,5.20
2023-02-16T13:36:51.068Z,4.60
2023-02-16T13:39:28.996Z,3.65
2023-02-16T13:42:17.594Z,6.15
2023-02-16T13:45:03.139Z,5.85
2023-02-16T13:47:33.636Z,5.03
2023-02-16T13:50:05.100Z,6.18
2023-02-16T13:52:39.870Z,5.45
2023-02-16T13:55:21.693Z,8.07
2023-02-16T13:57:52.068Z,6.22
2023-02-16T14:00:38.963Z,7.63
2023-02-16T14:03:18.945Z,7.80
2023-02-16T14:05:53.039Z,8.73
2023-02-16T14:08:30.537Z,5.47
2023-02-16T14:11:04.322Z,5.50
2023-02-16T14:13:45.684Z,6.43
2023-02-16T14:16:18.590Z,6.40
2023-02-16T14:18:55.986Z,3.92
2023-02-16T14:21:42.156Z,6.40
2023-02-16T14:24:23.716Z,5.07
2023-02-16T14:26:59.471Z,7.80
2023-02-16T14:29:43.006Z,7.28
2023-02-16T14:35:08.338Z,17.33
2023-02-16T14:37:39.726Z,5.82
2023-02-16T14:40:35.025Z,9.77
2023-02-16T14:43:15.750Z,6.65
2023-02-16T14:46:20.136Z,10.73
2023-02-16T14:48:59.211Z,7.82
2023-02-16T14:51:44.588Z,13.38
2023-02-16T14:54:30.672Z,7.10
2023-02-16T14:57:13.188Z,9.05
2023-02-16T14:59:52.913Z,9.75
2023-02-16T15:02:34.891Z,7.57
2023-02-16T15:05:17.870Z,9.43
2023-02-16T15:07:50.623Z,10.88
2023-02-16T15:10:26.651Z,9.30
2023-02-16T15:12:55.496Z,9.07
2023-02-16T15:15:40.921Z,7.45
2023-02-16T15:18:15.468Z,12.07
2023-02-16T15:20:45.986Z,8.07
2023-02-16T15:23:22.963Z,5.97
2023-02-16T15:26:05.914Z,7.90
2023-02-16T15:28:36.346Z,10.95
2023-02-16T15:31:06.847Z,9.32
2023-02-16T15:33:42.385Z,11.40
2023-02-16T15:36:15.179Z,11.40
2023-02-16T15:39:16.053Z,14.13
2023-02-16T15:41:49.689Z,10.77
2023-02-16T15:44:36.040Z,11.88
2023-02-16T15:47:13.893Z,13.35
2023-02-16T15:49:41.337Z,10.65
2023-02-16T15:52:21.687Z,8.70
2023-02-16T15:54:49.922Z,8.88
2023-02-16T15:57:31.490Z,7.95
2023-02-16T16:00:03.627Z,8.07
2023-02-16T16:02:38.588Z,6.22
2023-02-16T16:05:09.609Z,8.93
2023-02-16T16:07:41.886Z,6.35
2023-02-16T16:10:18.104Z,6.40
2023-02-16T16:12:45.715Z,5.10
2023-02-16T16:15:23.079Z,6.95
2023-02-16T16:17:52.754Z,13.15
2023-02-16T16:20:22.440Z,4.30
2023-02-16T16:22:57.181Z,7.78
2023-02-16T16:25:37.233Z,6.63
2023-02-16T16:28:08.221Z,6.55
2023-02-16T16:30:36.948Z,6.18
2023-02-16T16:33:05.388Z,7.82
2023-02-16T16:35:44.147Z,8.43
2023-02-16T16:38:28.209Z,7.22
2023-02-16T16:41:01.795Z,12.95
2023-02-16T16:43:31.302Z,5.45
2023-02-16T16:46:12.311Z,10.25
2023-02-16T16:48:44.415Z,8.10
2023-02-16T16:51:23.341Z,7.75
2023-02-16T16:54:01.051Z,7.03
2023-02-16T16:56:35.607Z,7.50
2023-02-16T16:59:02.880Z,8.00
2023-02-16T17:01:30.291Z,8.57
2023-02-16T17:03:57.246Z,6.90
2023-02-16T17:06:24.981Z,6.13
2023-02-16T17:08:52.082Z,6.32
2023-02-16T17:11:33.066Z,8.27
2023-02-16T17:14:09.775Z,6.88
2023-02-16T17:16:40.827Z,8.50
2023-02-16T17:19:07.680Z,7.35
2023-02-16T17:21:34.393Z,8.07
2023-02-16T17:24:01.110Z,8.93
2023-02-16T17:26:27.823Z,6.47
2023-02-16T17:28:54.521Z,11.90
2023-02-16T17:31:21.378Z,8.80
2023-02-16T17:33:48.181Z,9.30
2023-02-16T17:36:16.397Z,9.32
2023-02-16T17:38:44.207Z,8.80
2023-02-16T17:41:22.041Z,9.32
2023-02-16T17:43:49.335Z,6.97
2023-02-16T17:46:17.478Z,8.73
2023-02-16T17:48:44.430Z,6.68
2023-02-16T17:51:19.837Z,6.72
2023-02-16T17:53:46.598Z,6.75
2023-02-16T17:56:22.240Z,6.32
2023-02-16T17:58:49.434Z,7.65
2023-02-16T18:01:17.310Z,9.30
2023-02-16T18:03:44.439Z,8.15
2023-02-16T18:06:17.077Z,15.18
2023-02-16T18:08:44.162Z,12.88
2023-02-16T18:11:11.598Z,8.57
2023-02-16T18:13:38.755Z,11.02
2023-02-16T18:16:07.661Z,9.20
2023-02-16T18:18:36.914Z,7.97
2023-02-16T18:21:03.904Z,8.35
2023-02-16T18:23:31.352Z,9.80
2023-02-16T18:25:58.113Z,8.18
2023-02-16T18:28:33.589Z,9.65
2023-02-16T18:31:02.247Z,9.13
2023-02-16T18:33:29.028Z,8.27
2023-02-16T18:35:57.690Z,8.82
2023-02-16T18:38:25.204Z,7.68
2023-02-16T18:40:54.238Z,6.97
2023-02-16T18:43:21.354Z,6.15
2023-02-16T18:45:48.399Z,6.55
2023-02-16T18:48:15.170Z,6.63
2023-02-16T18:50:41.849Z,5.85
2023-02-16T18:53:08.665Z,5.93
2023-02-16T18:55:35.818Z,6.47
2023-02-16T18:58:07.465Z,7.10
2023-02-16T19:00:34.921Z,7.43
2023-02-16T19:03:01.666Z,6.50
2023-02-16T19:05:28.417Z,6.72
2023-02-16T19:07:55.148Z,7.03
2023-02-16T19:10:21.899Z,7.22
2023-02-16T19:12:48.731Z,9.13
2023-02-16T19:15:15.570Z,5.78
2023-02-16T19:17:42.663Z,6.43
2023-02-16T19:20:12.332Z,5.35
2023-02-16T19:22:39.127Z,9.57
2023-02-16T19:25:07.790Z,6.18
2023-02-16T19:27:35.254Z,6.90
2023-02-16T19:30:03.343Z,7.00
2023-02-16T19:32:31.056Z,7.35
2023-02-16T19:34:58.114Z,6.78
2023-02-16T19:37:24.929Z,6.10
2023-02-16T19:39:52.306Z,5.88
2023-02-16T19:42:20.157Z,7.57
2023-02-16T19:44:47.028Z,6.30
2023-02-16T19:47:13.724Z,5.63
2023-02-16T19:49:40.437Z,7.53
2023-02-16T19:52:07.351Z,5.90
2023-02-16T19:54:37.513Z,5.88
2023-02-16T19:57:05.176Z,7.25
2023-02-16T19:59:32.749Z,5.00
2023-02-16T20:01:59.582Z,7.28
2023-02-16T20:04:26.268Z,8.52
2023-02-16T20:06:54.528Z,6.43
2023-02-16T20:09:22.424Z,7.25
2023-02-16T20:11:49.496Z,6.50
2023-02-16T20:14:16.270Z,7.28
2023-02-16T20:16:43.902Z,5.53
2023-02-16T20:19:11.132Z,6.72
2023-02-16T20:21:38.150Z,6.93
2023-02-16T20:24:05.570Z,5.00
2023-02-16T20:26:39.159Z,7.20
2023-02-16T20:29:07.661Z,5.63
2023-02-16T20:31:40.847Z,6.07
2023-02-16T20:36:35.557Z,6.88
2023-02-16T20:39:02.503Z,8.77
2023-02-16T20:41:29.225Z,7.15
2023-02-16T20:43:55.965Z,8.45
2023-02-16T20:46:23.989Z,8.25
2023-02-16T20:48:51.053Z,8.35
2023-02-16T20:51:18.693Z,6.50
2023-02-16T20:53:45.669Z,6.97
2023-02-16T20:56:20.596Z,5.55
2023-02-16T20:58:49.799Z,7.70
2023-02-16T21:01:25.929Z,7.40
2023-02-16T21:03:54.372Z,8.32
2023-02-16T21:06:22.343Z,8.50
2023-02-16T21:08:49.226Z,6.60
2023-02-16T21:11:16.481Z,6.10
2023-02-16T21:13:43.735Z,8.23
2023-02-16T21:16:11.213Z,9.23
2023-02-16T21:18:40.367Z,6.57
2023-02-16T21:21:08.514Z,6.10
2023-02-16T21:23:35.752Z,7.28
2023-02-16T21:26:05.392Z,7.07
2023-02-16T21:28:33.075Z,8.52
2023-02-16T21:31:09.848Z,9.32
2023-02-16T21:33:37.099Z,7.45
2023-02-16T21:36:08.493Z,9.25
2023-02-16T21:38:35.673Z,8.40
2023-02-16T21:41:25.312Z,7.43
2023-02-16T21:43:57.372Z,8.23
2023-02-16T21:46:24.845Z,8.10
2023-02-16T21:48:52.021Z,8.68
2023-02-16T21:51:24.958Z,8.02
2023-02-16T21:53:53.315Z,8.45
2023-02-16T21:56:26.046Z,10.27
2023-02-16T21:58:52.910Z,9.32
2023-02-16T22:01:22.110Z,10.95
2023-02-16T22:03:48.930Z,9.20
2023-02-16T22:06:15.670Z,13.23
2023-02-16T22:08:42.307Z,11.52
2023-02-16T22:11:12.140Z,9.45
2023-02-16T22:13:39.486Z,11.05
2023-02-16T22:16:25.854Z,12.50
2023-02-16T22:19:08.782Z,10.57
2023-02-16T22:21:37.615Z,13.05
2023-02-16T22:24:05.596Z,12.02
2023-02-16T22:26:34.772Z,14.10
2023-02-16T22:29:06.692Z,14.68
2023-02-16T22:31:34.424Z,14.80
2023-02-16T22:34:05.081Z,14.48
2023-02-16T22:36:32.848Z,15.27
2023-02-16T22:38:59.810Z,15.10
2023-02-16T22:41:26.972Z,13.63
2023-02-16T22:43:55.289Z,15.98
2023-02-16T22:46:23.268Z,16.95
2023-02-16T22:48:50.840Z,14.98
2023-02-16T22:51:18.295Z,13.30
2023-02-16T22:53:45.846Z,16.90
2023-02-16T22:56:18.302Z,12.80
2023-02-16T22:58:46.068Z,15.40
2023-02-16T23:01:15.282Z,18.10
2023-02-16T23:03:42.765Z,19.50
2023-02-16T23:06:34.351Z,15.75
2023-02-16T23:09:06.290Z,16.00
2023-02-16T23:11:34.652Z,17.90
2023-02-16T23:14:01.519Z,16.77
2023-02-16T23:16:28.974Z,17.52
2023-02-16T23:18:57.479Z,12.30
2023-02-16T23:21:27.229Z,15.80
2023-02-16T23:23:54.641Z,13.38
2023-02-16T23:26:23.898Z,14.10
2023-02-16T23:28:53.567Z,11.25
2023-02-16T23:31:22.030Z,13.25
2023-02-16T23:33:49.567Z,13.40
2023-02-16T23:36:16.457Z,10.98
2023-02-16T23:38:43.136Z,12.77
2023-02-16T23:41:12.947Z,12.90
2023-02-16T23:43:39.958Z,12.85
2023-02-16T23:46:07.880Z,11.98
2023-02-16T23:48:35.365Z,13.55
2023-02-16T23:51:02.253Z,11.25
2023-02-16T23:53:29.188Z,11.32
2023-02-16T23:56:05.517Z,12.77
2023-02-16T23:58:37.543Z,12.05
